^^
TXWeather Station Historical Data
Daily Summary for January 08, 2022 Units:  English    Metric   Both
Daily Weekly Monthly Yearly Custom
  High: Low: Average:
Temperature: 77.0 °F 51.0 °F 65.2 °F
Dew Point: 73.0 °F 43.0 °F 61.2 °F
Humidity: 93% 74% 87%
Wind Speed: 23mph 3mph 9.2mph
Wind Gust: 23mph - -
Wind- - SE
Pressure: 30.2 in 30.0 in -
Precipitation: 0.020 in    
Historical Graphs
 
 
Tabular Data for January 08, 2022
Time Temperature Dew Point Pressure Wind Wind Speed Wind Gust Humidity Rainfall Rate (Hourly) solar
00:04 51.0 °F 43.0 °F 30.2 in East 8 mph 9 mph 74% 0.000 in 0.00 W/m2
00:09 51.0 °F 43.0 °F 30.2 in East 7 mph 7 mph 74% 0.000 in 0.00 W/m2
00:14 51.0 °F 43.0 °F 30.2 in East 7 mph 7 mph 74% 0.000 in 0.00 W/m2
00:19 51.0 °F 43.0 °F 30.2 in ESE 4 mph 7 mph 74% 0.000 in 0.00 W/m2
00:24 51.0 °F 43.0 °F 30.2 in East 8 mph 8 mph 74% 0.000 in 0.00 W/m2
00:29 51.0 °F 44.0 °F 30.1 in East 3 mph 4 mph 75% 0.000 in 0.00 W/m2
00:34 51.0 °F 44.0 °F 30.1 in East 6 mph 7 mph 75% 0.000 in 0.00 W/m2
00:39 51.0 °F 44.0 °F 30.1 in ESE 5 mph 5 mph 75% 0.000 in 0.00 W/m2
00:44 51.0 °F 44.0 °F 30.1 in East 5 mph 6 mph 75% 0.000 in 0.00 W/m2
00:49 51.0 °F 44.0 °F 30.1 in SE 4 mph 4 mph 75% 0.000 in 0.00 W/m2
00:54 51.0 °F 44.0 °F 30.1 in ESE 6 mph 6 mph 76% 0.000 in 0.00 W/m2
00:59 51.0 °F 44.0 °F 30.1 in ESE 6 mph 6 mph 76% 0.000 in 0.00 W/m2
01:04 51.0 °F 44.0 °F 30.1 in ESE 7 mph 8 mph 76% 0.000 in 0.00 W/m2
01:09 51.0 °F 44.0 °F 30.1 in ESE 4 mph 6 mph 76% 0.000 in 0.00 W/m2
01:14 51.0 °F 44.0 °F 30.1 in East 7 mph 7 mph 77% 0.000 in 0.00 W/m2
01:19 51.0 °F 44.0 °F 30.1 in East 6 mph 6 mph 77% 0.000 in 0.00 W/m2
01:24 52.0 °F 45.0 °F 30.1 in East 5 mph 6 mph 77% 0.000 in 0.00 W/m2
01:29 52.0 °F 45.0 °F 30.1 in East 7 mph 7 mph 77% 0.000 in 0.00 W/m2
01:34 52.0 °F 45.0 °F 30.1 in East 7 mph 8 mph 78% 0.000 in 0.00 W/m2
01:39 52.0 °F 45.0 °F 30.1 in East 6 mph 7 mph 78% 0.000 in 0.00 W/m2
01:44 52.0 °F 45.0 °F 30.1 in ESE 10 mph 10 mph 78% 0.000 in 0.00 W/m2
01:49 52.0 °F 46.0 °F 30.1 in ESE 8 mph 10 mph 79% 0.000 in 0.00 W/m2
01:54 52.0 °F 46.0 °F 30.1 in East 9 mph 10 mph 79% 0.000 in 0.00 W/m2
01:59 52.0 °F 46.0 °F 30.1 in ESE 4 mph 8 mph 79% 0.000 in 0.00 W/m2
02:04 52.0 °F 46.0 °F 30.1 in ESE 4 mph 4 mph 79% 0.000 in 0.00 W/m2
02:09 52.0 °F 46.0 °F 30.1 in ESE 4 mph 6 mph 80% 0.000 in 0.00 W/m2
02:14 52.0 °F 46.0 °F 30.1 in ESE 8 mph 8 mph 80% 0.000 in 0.00 W/m2
02:19 52.0 °F 47.0 °F 30.1 in ESE 8 mph 10 mph 81% 0.000 in 0.00 W/m2
02:24 53.0 °F 47.0 °F 30.1 in ESE 9 mph 9 mph 81% 0.000 in 0.00 W/m2
02:29 53.0 °F 47.0 °F 30.1 in SE 10 mph 10 mph 81% 0.000 in 0.00 W/m2
02:34 53.0 °F 47.0 °F 30.1 in ESE 8 mph 11 mph 82% 0.000 in 0.00 W/m2
02:39 53.0 °F 48.0 °F 30.1 in ESE 7 mph 11 mph 82% 0.000 in 0.00 W/m2
02:44 53.0 °F 48.0 °F 30.1 in ESE 7 mph 8 mph 82% 0.000 in 0.00 W/m2
02:49 53.0 °F 48.0 °F 30.1 in SE 13 mph 14 mph 83% 0.000 in 0.00 W/m2
02:54 53.0 °F 48.0 °F 30.1 in ESE 8 mph 14 mph 83% 0.000 in 0.00 W/m2
02:59 53.0 °F 48.0 °F 30.1 in East 8 mph 9 mph 83% 0.000 in 0.00 W/m2
03:04 53.0 °F 48.0 °F 30.1 in SE 8 mph 10 mph 83% 0.000 in 0.00 W/m2
03:09 53.0 °F 49.0 °F 30.1 in SE 7 mph 11 mph 84% 0.000 in 0.00 W/m2
03:14 53.0 °F 49.0 °F 30.1 in ESE 8 mph 8 mph 84% 0.000 in 0.00 W/m2
03:19 54.0 °F 49.0 °F 30.1 in SE 9 mph 9 mph 84% 0.000 in 0.00 W/m2
03:24 54.0 °F 49.0 °F 30.1 in ESE 9 mph 9 mph 84% 0.000 in 0.00 W/m2
03:29 54.0 °F 50.0 °F 30.1 in ESE 9 mph 10 mph 85% 0.000 in 0.00 W/m2
03:34 54.0 °F 50.0 °F 30.1 in ESE 8 mph 8 mph 85% 0.000 in 0.00 W/m2
03:39 54.0 °F 50.0 °F 30.1 in SE 8 mph 9 mph 85% 0.000 in 0.00 W/m2
03:44 54.0 °F 50.0 °F 30.1 in ESE 9 mph 9 mph 85% 0.000 in 0.00 W/m2
03:49 54.0 °F 50.0 °F 30.1 in ESE 10 mph 10 mph 85% 0.000 in 0.00 W/m2
03:54 54.0 °F 50.0 °F 30.1 in ESE 8 mph 9 mph 86% 0.000 in 0.00 W/m2
03:59 54.0 °F 50.0 °F 30.1 in ESE 9 mph 9 mph 86% 0.000 in 0.00 W/m2
04:04 54.0 °F 50.0 °F 30.1 in ESE 11 mph 11 mph 86% 0.000 in 0.00 W/m2
04:09 54.0 °F 50.0 °F 30.1 in ESE 7 mph 7 mph 86% 0.000 in 0.00 W/m2
04:14 54.0 °F 50.0 °F 30.1 in ESE 9 mph 9 mph 86% 0.000 in 0.00 W/m2
04:19 54.0 °F 50.0 °F 30.1 in ESE 8 mph 8 mph 86% 0.000 in 0.00 W/m2
04:24 54.0 °F 51.0 °F 30.1 in SE 8 mph 8 mph 87% 0.000 in 0.00 W/m2
04:29 55.0 °F 51.0 °F 30.1 in ESE 6 mph 7 mph 87% 0.000 in 0.00 W/m2
04:34 55.0 °F 51.0 °F 30.1 in ESE 6 mph 8 mph 87% 0.000 in 0.00 W/m2
04:39 55.0 °F 51.0 °F 30.1 in ESE 9 mph 9 mph 87% 0.000 in 0.00 W/m2
04:44 55.0 °F 51.0 °F 30.1 in ESE 6 mph 8 mph 87% 0.000 in 0.00 W/m2
04:49 55.0 °F 51.0 °F 30.1 in SE 9 mph 9 mph 87% 0.000 in 0.00 W/m2
04:54 55.0 °F 51.0 °F 30.1 in ESE 5 mph 7 mph 87% 0.000 in 0.00 W/m2
04:59 55.0 °F 51.0 °F 30.1 in ESE 6 mph 6 mph 87% 0.000 in 0.00 W/m2
05:04 55.0 °F 51.0 °F 30.1 in ESE 7 mph 7 mph 87% 0.000 in 0.00 W/m2
05:09 55.0 °F 51.0 °F 30.1 in ESE 5 mph 8 mph 88% 0.000 in 0.00 W/m2
05:14 55.0 °F 51.0 °F 30.1 in East 7 mph 8 mph 88% 0.000 in 0.00 W/m2
05:19 55.0 °F 51.0 °F 30.1 in ESE 3 mph 4 mph 88% 0.000 in 0.00 W/m2
05:24 55.0 °F 51.0 °F 30.1 in ESE 6 mph 6 mph 88% 0.000 in 0.00 W/m2
05:29 55.0 °F 51.0 °F 30.1 in ESE 7 mph 8 mph 88% 0.000 in 0.00 W/m2
05:34 55.0 °F 51.0 °F 30.1 in ESE 7 mph 8 mph 88% 0.000 in 0.00 W/m2
05:39 55.0 °F 51.0 °F 30.1 in East 9 mph 9 mph 88% 0.000 in 0.00 W/m2
05:44 55.0 °F 51.0 °F 30.1 in ESE 4 mph 7 mph 88% 0.000 in 0.00 W/m2
05:49 55.0 °F 52.0 °F 30.1 in ESE 8 mph 8 mph 89% 0.000 in 0.00 W/m2
05:54 55.0 °F 52.0 °F 30.1 in East 7 mph 7 mph 89% 0.000 in 0.00 W/m2
05:59 55.0 °F 52.0 °F 30.1 in ESE 4 mph 7 mph 89% 0.000 in 0.00 W/m2
06:04 55.0 °F 52.0 °F 30.1 in ESE 6 mph 6 mph 89% 0.000 in 0.00 W/m2
06:09 55.0 °F 52.0 °F 30.1 in ESE 7 mph 7 mph 89% 0.000 in 0.00 W/m2
06:14 55.0 °F 52.0 °F 30.1 in East 4 mph 6 mph 89% 0.000 in 0.00 W/m2
06:19 55.0 °F 52.0 °F 30.1 in East 5 mph 6 mph 89% 0.000 in 0.00 W/m2
06:24 56.0 °F 53.0 °F 30.1 in East 4 mph 6 mph 90% 0.000 in 0.00 W/m2
06:29 56.0 °F 53.0 °F 30.1 in ESE 6 mph 8 mph 90% 0.000 in 0.00 W/m2
06:34 56.0 °F 53.0 °F 30.1 in ESE 7 mph 8 mph 90% 0.000 in 0.00 W/m2
06:39 56.0 °F 53.0 °F 30.1 in ESE 6 mph 6 mph 90% 0.000 in 0.00 W/m2
06:44 56.0 °F 53.0 °F 30.1 in East 6 mph 6 mph 90% 0.000 in 0.00 W/m2
06:49 56.0 °F 53.0 °F 30.1 in ESE 3 mph 5 mph 90% 0.000 in 0.00 W/m2
06:54 56.0 °F 53.0 °F 30.1 in East 7 mph 8 mph 90% 0.000 in 0.00 W/m2
06:59 57.0 °F 54.0 °F 30.1 in ESE 4 mph 6 mph 90% 0.000 in 0.00 W/m2
07:04 57.0 °F 54.0 °F 30.1 in ESE 3 mph 8 mph 90% 0.000 in 0.00 W/m2
07:09 57.0 °F 54.0 °F 30.1 in SE 4 mph 5 mph 90% 0.000 in 0.00 W/m2
07:14 57.0 °F 54.0 °F 30.1 in ESE 4 mph 4 mph 90% 0.000 in 0.00 W/m2
07:19 57.0 °F 54.0 °F 30.1 in ESE 6 mph 6 mph 90% 0.000 in 0.00 W/m2
07:24 57.0 °F 54.0 °F 30.1 in SE 3 mph 6 mph 90% 0.000 in 0.00 W/m2
07:29 57.0 °F 54.0 °F 30.1 in East 5 mph 5 mph 90% 0.000 in 0.00 W/m2
07:34 57.0 °F 54.0 °F 30.1 in ESE 6 mph 6 mph 90% 0.000 in 0.00 W/m2
07:39 57.0 °F 54.0 °F 30.1 in ESE 5 mph 6 mph 90% 0.000 in 0.00 W/m2
07:44 57.0 °F 54.0 °F 30.1 in ESE 5 mph 6 mph 90% 0.000 in 9.00 W/m2
07:49 57.0 °F 55.0 °F 30.1 in ESE 4 mph 6 mph 91% 0.000 in 11.00 W/m2
07:54 57.0 °F 55.0 °F 30.1 in ESE 8 mph 9 mph 91% 0.000 in 14.00 W/m2
07:59 57.0 °F 55.0 °F 30.1 in ESE 5 mph 9 mph 91% 0.000 in 19.00 W/m2
08:04 57.0 °F 55.0 °F 30.1 in East 9 mph 9 mph 91% 0.000 in 26.00 W/m2
08:09 57.0 °F 55.0 °F 30.1 in ESE 4 mph 9 mph 91% 0.000 in 26.00 W/m2
08:14 58.0 °F 55.0 °F 30.1 in SE 4 mph 6 mph 91% 0.000 in 26.00 W/m2
08:19 58.0 °F 55.0 °F 30.1 in ESE 3 mph 6 mph 91% 0.000 in 26.00 W/m2
08:24 58.0 °F 55.0 °F 30.1 in ESE 5 mph 8 mph 91% 0.000 in 26.00 W/m2
08:29 58.0 °F 55.0 °F 30.1 in ESE 3 mph 3 mph 91% 0.000 in 33.00 W/m2
08:34 58.0 °F 55.0 °F 30.1 in East 3 mph 3 mph 91% 0.000 in 49.00 W/m2
08:39 58.0 °F 55.0 °F 30.1 in ESE 3 mph 3 mph 91% 0.000 in 37.00 W/m2
08:44 59.0 °F 56.0 °F 30.1 in ESE 4 mph 4 mph 91% 0.000 in 60.00 W/m2
08:49 59.0 °F 56.0 °F 30.1 in East 4 mph 4 mph 91% 0.000 in 53.00 W/m2
08:54 59.0 °F 57.0 °F 30.1 in ESE 6 mph 7 mph 92% 0.000 in 37.00 W/m2
08:59 59.0 °F 57.0 °F 30.1 in ESE 4 mph 7 mph 92% 0.000 in 37.00 W/m2
09:04 60.0 °F 57.0 °F 30.1 in East 6 mph 6 mph 92% 0.000 in 37.00 W/m2
09:09 60.0 °F 58.0 °F 30.1 in SE 4 mph 7 mph 92% 0.000 in 32.00 W/m2
09:14 60.0 °F 58.0 °F 30.1 in ESE 3 mph 4 mph 92% 0.000 in 40.00 W/m2
09:19 61.0 °F 58.0 °F 30.1 in East 3 mph 4 mph 92% 0.000 in 53.00 W/m2
09:24 61.0 °F 59.0 °F 30.1 in East 4 mph 7 mph 92% 0.000 in 67.00 W/m2
09:29 61.0 °F 59.0 °F 30.1 in East 5 mph 6 mph 92% 0.000 in 58.00 W/m2
09:34 62.0 °F 59.0 °F 30.1 in SE 4 mph 7 mph 92% 0.000 in 40.00 W/m2
09:39 62.0 °F 59.0 °F 30.1 in SE 10 mph 10 mph 92% 0.000 in 67.00 W/m2
09:44 62.0 °F 60.0 °F 30.1 in SE 8 mph 10 mph 92% 0.000 in 67.00 W/m2
09:49 62.0 °F 60.0 °F 30.1 in ESE 7 mph 8 mph 92% 0.000 in 100.00 W/m2
09:54 62.0 °F 60.0 °F 30.1 in ESE 8 mph 9 mph 92% 0.000 in 100.00 W/m2
09:59 62.0 °F 60.0 °F 30.1 in ESE 8 mph 9 mph 92% 0.000 in 86.00 W/m2
10:04 62.0 °F 60.0 °F 30.1 in SE 6 mph 9 mph 92% 0.000 in 60.00 W/m2
10:09 62.0 °F 60.0 °F 30.1 in SE 11 mph 11 mph 92% 0.000 in 79.00 W/m2
10:14 63.0 °F 60.0 °F 30.1 in ESE 7 mph 8 mph 92% 0.000 in 102.00 W/m2
10:19 63.0 °F 60.0 °F 30.1 in SE 11 mph 12 mph 92% 0.000 in 120.00 W/m2
10:24 63.0 °F 61.0 °F 30.1 in SE 8 mph 8 mph 92% 0.000 in 97.00 W/m2
10:29 63.0 °F 61.0 °F 30.1 in ESE 6 mph 8 mph 92% 0.000 in 123.00 W/m2
10:34 63.0 °F 61.0 °F 30.1 in ESE 6 mph 6 mph 92% 0.000 in 123.00 W/m2
10:39 63.0 °F 61.0 °F 30.1 in East 7 mph 7 mph 92% 0.000 in 120.00 W/m2
10:44 64.0 °F 61.0 °F 30.1 in SE 4 mph 6 mph 92% 0.000 in 107.00 W/m2
10:49 64.0 °F 61.0 °F 30.1 in ESE 8 mph 8 mph 92% 0.000 in 132.00 W/m2
10:54 64.0 °F 61.0 °F 30.1 in ESE 8 mph 9 mph 92% 0.000 in 137.00 W/m2
10:59 64.0 °F 62.0 °F 30.1 in SE 6 mph 9 mph 92% 0.000 in 185.00 W/m2
11:04 64.0 °F 62.0 °F 30.1 in SE 4 mph 6 mph 92% 0.000 in 243.00 W/m2
11:09 65.0 °F 62.0 °F 30.1 in ESE 8 mph 8 mph 93% 0.000 in 162.00 W/m2
11:14 65.0 °F 62.0 °F 30.1 in ESE 7 mph 7 mph 93% 0.000 in 128.00 W/m2
11:19 65.0 °F 62.0 °F 30.1 in ESE 4 mph 7 mph 92% 0.000 in 171.00 W/m2
11:24 65.0 °F 62.0 °F 30.1 in SE 9 mph 9 mph 92% 0.000 in 171.00 W/m2
11:29 65.0 °F 62.0 °F 30.1 in ESE 4 mph 9 mph 92% 0.000 in 185.00 W/m2
11:34 65.0 °F 63.0 °F 30.1 in ESE 7 mph 7 mph 92% 0.000 in 295.00 W/m2
11:39 66.0 °F 64.0 °F 30.1 in ESE 6 mph 8 mph 93% 0.000 in 323.00 W/m2
11:44 66.0 °F 64.0 °F 30.1 in SE 6 mph 8 mph 93% 0.000 in 236.00 W/m2
11:49 67.0 °F 65.0 °F 30.1 in SE 5 mph 5 mph 93% 0.000 in 264.00 W/m2
11:54 67.0 °F 65.0 °F 30.1 in ESE 6 mph 6 mph 93% 0.000 in 262.00 W/m2
11:59 67.0 °F 65.0 °F 30.1 in ESE 6 mph 7 mph 93% 0.000 in 299.00 W/m2
12:04 68.0 °F 65.0 °F 30.1 in East 6 mph 7 mph 93% 0.000 in 237.00 W/m2
12:09 68.0 °F 66.0 °F 30.1 in ESE 4 mph 5 mph 92% 0.000 in 292.00 W/m2
12:14 68.0 °F 66.0 °F 30.1 in East 6 mph 6 mph 93% 0.000 in 311.00 W/m2
12:19 69.0 °F 66.0 °F 30.1 in East 4 mph 4 mph 92% 0.000 in 281.00 W/m2
12:24 69.0 °F 67.0 °F 30.0 in SE 6 mph 6 mph 92% 0.000 in 239.00 W/m2
12:29 69.0 °F 67.0 °F 30.0 in ESE 4 mph 6 mph 92% 0.000 in 283.00 W/m2
12:34 70.0 °F 67.0 °F 30.0 in ESE 5 mph 7 mph 92% 0.000 in 223.00 W/m2
12:39 70.0 °F 68.0 °F 30.0 in ESE 4 mph 7 mph 92% 0.000 in 309.00 W/m2
12:44 71.0 °F 68.0 °F 30.0 in SE 9 mph 9 mph 92% 0.000 in 299.00 W/m2
12:49 71.0 °F 68.0 °F 30.0 in SE 5 mph 7 mph 92% 0.000 in 236.00 W/m2
12:54 72.0 °F 69.0 °F 30.0 in ESE 8 mph 8 mph 91% 0.000 in 404.00 W/m2
12:59 72.0 °F 69.0 °F 30.0 in ESE 6 mph 8 mph 91% 0.000 in 404.00 W/m2
13:04 72.0 °F 69.0 °F 30.0 in ESE 4 mph 5 mph 90% 0.000 in 162.00 W/m2
13:09 72.0 °F 69.0 °F 30.0 in SE 9 mph 9 mph 90% 0.000 in 137.00 W/m2
13:14 72.0 °F 69.0 °F 30.0 in ESE 7 mph 10 mph 89% 0.000 in 93.00 W/m2
13:19 72.0 °F 69.0 °F 30.0 in SE 7 mph 7 mph 89% 0.000 in 151.00 W/m2
13:24 72.0 °F 68.0 °F 30.0 in ESE 5 mph 7 mph 88% 0.000 in 179.00 W/m2
13:29 72.0 °F 68.0 °F 30.0 in ESE 7 mph 9 mph 88% 0.000 in 251.00 W/m2
13:34 72.0 °F 68.0 °F 30.0 in ESE 6 mph 6 mph 88% 0.000 in 304.00 W/m2
13:39 72.0 °F 68.0 °F 30.0 in ESE 6 mph 7 mph 88% 0.000 in 258.00 W/m2
13:44 72.0 °F 68.0 °F 30.0 in ESE 5 mph 5 mph 88% 0.000 in 200.00 W/m2
13:49 72.0 °F 69.0 °F 30.0 in SE 7 mph 8 mph 88% 0.000 in 200.00 W/m2
13:54 72.0 °F 69.0 °F 30.0 in ESE 3 mph 8 mph 88% 0.000 in 81.00 W/m2
13:59 73.0 °F 69.0 °F 30.0 in SE 6 mph 8 mph 88% 0.010 in 257.00 W/m2
14:04 74.0 °F 71.0 °F 30.0 in SE 7 mph 7 mph 90% 0.010 in 517.00 W/m2
14:09 75.0 °F 72.0 °F 30.0 in SE 9 mph 9 mph 90% 0.010 in 406.00 W/m2
14:14 75.0 °F 72.0 °F 30.0 in SE 12 mph 13 mph 90% 0.010 in 445.00 W/m2
14:19 76.0 °F 72.0 °F 30.0 in SE 9 mph 11 mph 89% 0.010 in 445.00 W/m2
14:24 76.0 °F 72.0 °F 30.0 in SE 9 mph 10 mph 89% 0.010 in 156.00 W/m2
14:29 76.0 °F 72.0 °F 30.0 in SSE 12 mph 13 mph 89% 0.010 in 156.00 W/m2
14:34 75.0 °F 72.0 °F 30.0 in SE 8 mph 11 mph 88% 0.010 in 195.00 W/m2
14:39 76.0 °F 72.0 °F 30.0 in SSE 9 mph 11 mph 89% 0.010 in 234.00 W/m2
14:44 76.0 °F 72.0 °F 30.0 in SSE 8 mph 9 mph 88% 0.010 in 306.00 W/m2
14:49 76.0 °F 73.0 °F 30.0 in SSE 12 mph 12 mph 88% 0.010 in 267.00 W/m2
14:54 77.0 °F 73.0 °F 30.0 in SSE 14 mph 15 mph 87% 0.010 in 302.00 W/m2
14:59 77.0 °F 73.0 °F 30.0 in SSE 14 mph 21 mph 87% 0.010 in 271.00 W/m2
15:04 77.0 °F 72.0 °F 30.0 in SSE 15 mph 16 mph 85% 0.000 in 179.00 W/m2
15:09 77.0 °F 72.0 °F 30.0 in South 16 mph 18 mph 84% 0.000 in 265.00 W/m2
15:14 77.0 °F 72.0 °F 30.0 in SSE 15 mph 20 mph 84% 0.000 in 225.00 W/m2
15:19 77.0 °F 71.0 °F 30.0 in SSE 14 mph 15 mph 83% 0.000 in 141.00 W/m2
15:24 77.0 °F 71.0 °F 30.0 in SSE 16 mph 18 mph 83% 0.000 in 146.00 W/m2
15:29 77.0 °F 71.0 °F 30.0 in SSE 14 mph 18 mph 82% 0.000 in 54.00 W/m2
15:34 77.0 °F 71.0 °F 30.0 in SSE 16 mph 16 mph 82% 0.000 in 93.00 W/m2
15:39 76.0 °F 70.0 °F 30.0 in SSE 13 mph 14 mph 82% 0.000 in 77.00 W/m2
15:44 76.0 °F 70.0 °F 30.0 in SSE 17 mph 17 mph 82% 0.000 in 76.00 W/m2
15:49 76.0 °F 70.0 °F 30.0 in South 14 mph 17 mph 83% 0.000 in 79.00 W/m2
15:54 76.0 °F 70.0 °F 30.0 in SSE 8 mph 10 mph 83% 0.000 in 91.00 W/m2
15:59 76.0 °F 70.0 °F 30.0 in SSE 12 mph 15 mph 83% 0.000 in 120.00 W/m2
16:04 76.0 °F 70.0 °F 30.0 in SSE 11 mph 15 mph 83% 0.000 in 120.00 W/m2
16:09 76.0 °F 70.0 °F 30.0 in SSE 9 mph 9 mph 83% 0.000 in 139.00 W/m2
16:14 76.0 °F 70.0 °F 30.0 in SSE 10 mph 11 mph 83% 0.000 in 139.00 W/m2
16:19 76.0 °F 70.0 °F 30.0 in SSE 10 mph 10 mph 83% 0.000 in 144.00 W/m2
16:24 76.0 °F 70.0 °F 30.0 in SSE 9 mph 9 mph 83% 0.000 in 148.00 W/m2
16:29 76.0 °F 70.0 °F 30.0 in SSE 9 mph 10 mph 83% 0.000 in 148.00 W/m2
16:34 76.0 °F 70.0 °F 30.0 in SSE 8 mph 8 mph 83% 0.000 in 158.00 W/m2
16:39 76.0 °F 71.0 °F 30.0 in SSE 9 mph 9 mph 84% 0.000 in 176.00 W/m2
16:44 76.0 °F 71.0 °F 30.0 in SSE 11 mph 11 mph 84% 0.000 in 127.00 W/m2
16:49 76.0 °F 70.0 °F 30.0 in SSE 16 mph 17 mph 83% 0.000 in 127.00 W/m2
16:54 76.0 °F 70.0 °F 30.0 in South 14 mph 17 mph 83% 0.000 in 135.00 W/m2
16:59 76.0 °F 70.0 °F 30.0 in South 11 mph 12 mph 83% 0.000 in 125.00 W/m2
17:04 76.0 °F 70.0 °F 30.0 in South 16 mph 16 mph 83% 0.000 in 97.00 W/m2
17:09 76.0 °F 70.0 °F 30.0 in SSE 10 mph 11 mph 83% 0.000 in 44.00 W/m2
17:14 76.0 °F 70.0 °F 30.0 in South 10 mph 12 mph 84% 0.000 in 28.00 W/m2
17:19 75.0 °F 70.0 °F 30.0 in South 12 mph 13 mph 84% 0.000 in 42.00 W/m2
17:24 75.0 °F 70.0 °F 30.0 in South 15 mph 15 mph 85% 0.000 in 42.00 W/m2
17:29 75.0 °F 70.0 °F 30.0 in South 15 mph 17 mph 85% 0.000 in 25.00 W/m2
17:34 75.0 °F 70.0 °F 30.0 in South 17 mph 18 mph 85% 0.000 in 19.00 W/m2
17:39 75.0 °F 70.0 °F 30.0 in SSE 15 mph 18 mph 85% 0.000 in 11.00 W/m2
17:44 74.0 °F 70.0 °F 30.0 in SSE 16 mph 16 mph 86% 0.000 in 0.00 W/m2
17:49 74.0 °F 70.0 °F 30.0 in South 12 mph 16 mph 86% 0.000 in 0.00 W/m2
17:54 74.0 °F 69.0 °F 30.0 in SSE 13 mph 16 mph 86% 0.000 in 0.00 W/m2
17:59 74.0 °F 69.0 °F 30.0 in SSE 14 mph 16 mph 86% 0.000 in 0.00 W/m2
18:04 74.0 °F 69.0 °F 30.0 in South 12 mph 15 mph 86% 0.000 in 0.00 W/m2
18:09 74.0 °F 69.0 °F 30.0 in SSE 14 mph 15 mph 86% 0.000 in 0.00 W/m2
18:14 74.0 °F 69.0 °F 30.0 in SSE 10 mph 16 mph 86% 0.000 in 0.00 W/m2
18:19 74.0 °F 69.0 °F 30.0 in SSE 13 mph 17 mph 87% 0.000 in 0.00 W/m2
18:24 74.0 °F 69.0 °F 30.0 in SSE 12 mph 12 mph 87% 0.000 in 0.00 W/m2
18:29 73.0 °F 69.0 °F 30.0 in SSE 13 mph 13 mph 87% 0.000 in 0.00 W/m2
18:34 73.0 °F 69.0 °F 30.0 in SSE 11 mph 12 mph 87% 0.000 in 0.00 W/m2
18:39 73.0 °F 69.0 °F 30.0 in SSE 12 mph 14 mph 87% 0.000 in 0.00 W/m2
18:44 73.0 °F 69.0 °F 30.0 in SSE 16 mph 18 mph 87% 0.000 in 0.00 W/m2
18:49 73.0 °F 69.0 °F 30.0 in SSE 15 mph 18 mph 87% 0.000 in 0.00 W/m2
18:54 73.0 °F 69.0 °F 30.0 in SSE 11 mph 14 mph 87% 0.000 in 0.00 W/m2
18:59 73.0 °F 69.0 °F 30.0 in SSE 15 mph 18 mph 87% 0.000 in 0.00 W/m2
19:04 73.0 °F 69.0 °F 30.0 in SSE 13 mph 18 mph 87% 0.000 in 0.00 W/m2
19:09 73.0 °F 69.0 °F 30.1 in SSE 17 mph 17 mph 87% 0.000 in 0.00 W/m2
19:14 73.0 °F 69.0 °F 30.0 in SSE 12 mph 17 mph 87% 0.000 in 0.00 W/m2
19:19 73.0 °F 69.0 °F 30.0 in SSE 16 mph 16 mph 87% 0.000 in 0.00 W/m2
19:24 73.0 °F 69.0 °F 30.0 in SE 16 mph 17 mph 87% 0.000 in 0.00 W/m2
19:29 73.0 °F 69.0 °F 30.0 in SE 14 mph 15 mph 87% 0.000 in 0.00 W/m2
19:34 73.0 °F 69.0 °F 30.1 in SSE 16 mph 16 mph 87% 0.000 in 0.00 W/m2
19:39 73.0 °F 69.0 °F 30.1 in SSE 18 mph 19 mph 87% 0.000 in 0.00 W/m2
19:44 73.0 °F 69.0 °F 30.1 in SSE 17 mph 20 mph 87% 0.010 in 0.00 W/m2
19:49 73.0 °F 69.0 °F 30.1 in SSE 14 mph 19 mph 88% 0.010 in 0.00 W/m2
19:54 73.0 °F 69.0 °F 30.1 in SSE 13 mph 17 mph 87% 0.010 in 0.00 W/m2
19:59 73.0 °F 69.0 °F 30.1 in SSE 15 mph 15 mph 87% 0.010 in 0.00 W/m2
20:04 73.0 °F 69.0 °F 30.1 in SSE 14 mph 14 mph 87% 0.010 in 0.00 W/m2
20:09 73.0 °F 69.0 °F 30.1 in SE 16 mph 19 mph 87% 0.010 in 0.00 W/m2
20:14 73.0 °F 69.0 °F 30.1 in SSE 15 mph 15 mph 87% 0.010 in 0.00 W/m2
20:19 73.0 °F 69.0 °F 30.1 in SSE 11 mph 12 mph 87% 0.010 in 0.00 W/m2
20:24 73.0 °F 69.0 °F 30.1 in SSE 16 mph 16 mph 88% 0.010 in 0.00 W/m2
20:29 73.0 °F 70.0 °F 30.1 in South 21 mph 21 mph 88% 0.010 in 0.00 W/m2
20:34 74.0 °F 70.0 °F 30.1 in SSE 18 mph 19 mph 88% 0.010 in 0.00 W/m2
20:39 74.0 °F 70.0 °F 30.1 in SSE 13 mph 14 mph 88% 0.010 in 0.00 W/m2
20:44 74.0 °F 70.0 °F 30.1 in SSE 11 mph 19 mph 88% 0.010 in 0.00 W/m2
20:49 74.0 °F 70.0 °F 30.1 in SSE 14 mph 19 mph 88% 0.000 in 0.00 W/m2
20:54 74.0 °F 70.0 °F 30.1 in South 15 mph 15 mph 88% 0.000 in 0.00 W/m2
20:59 74.0 °F 70.0 °F 30.1 in SSE 12 mph 16 mph 88% 0.000 in 0.00 W/m2
21:04 74.0 °F 70.0 °F 30.1 in SSE 13 mph 15 mph 87% 0.000 in 0.00 W/m2
21:09 74.0 °F 70.0 °F 30.1 in SSE 17 mph 18 mph 87% 0.000 in 0.00 W/m2
21:14 74.0 °F 70.0 °F 30.1 in South 14 mph 16 mph 87% 0.000 in 0.00 W/m2
21:19 74.0 °F 70.0 °F 30.1 in South 12 mph 16 mph 87% 0.000 in 0.00 W/m2
21:24 74.0 °F 70.0 °F 30.1 in SSE 19 mph 19 mph 87% 0.000 in 0.00 W/m2
21:29 74.0 °F 70.0 °F 30.1 in SSE 23 mph 23 mph 87% 0.000 in 0.00 W/m2
21:34 74.0 °F 70.0 °F 30.1 in SSE 15 mph 18 mph 87% 0.000 in 0.00 W/m2
21:39 74.0 °F 70.0 °F 30.1 in SSE 13 mph 19 mph 87% 0.000 in 0.00 W/m2
21:44 74.0 °F 70.0 °F 30.1 in SSE 14 mph 14 mph 87% 0.000 in 0.00 W/m2
21:49 74.0 °F 70.0 °F 30.1 in SSE 13 mph 14 mph 87% 0.000 in 0.00 W/m2
21:54 74.0 °F 70.0 °F 30.1 in SSE 12 mph 15 mph 87% 0.000 in 0.00 W/m2
21:59 74.0 °F 70.0 °F 30.1 in SSE 16 mph 17 mph 87% 0.000 in 0.00 W/m2
22:04 74.0 °F 70.0 °F 30.1 in SSE 17 mph 17 mph 87% 0.000 in 0.00 W/m2
22:09 74.0 °F 70.0 °F 30.1 in SSE 10 mph 13 mph 87% 0.000 in 0.00 W/m2
22:14 74.0 °F 70.0 °F 30.1 in SSE 17 mph 17 mph 87% 0.000 in 0.00 W/m2
22:19 74.0 °F 70.0 °F 30.1 in SSE 15 mph 15 mph 88% 0.000 in 0.00 W/m2
22:24 74.0 °F 70.0 °F 30.1 in SSE 12 mph 14 mph 88% 0.000 in 0.00 W/m2
22:29 74.0 °F 70.0 °F 30.1 in SSE 11 mph 14 mph 88% 0.000 in 0.00 W/m2
22:34 74.0 °F 70.0 °F 30.1 in SSE 13 mph 16 mph 88% 0.000 in 0.00 W/m2
22:39 73.0 °F 70.0 °F 30.1 in SSE 15 mph 15 mph 88% 0.000 in 0.00 W/m2
22:44 73.0 °F 70.0 °F 30.1 in SSE 15 mph 16 mph 89% 0.000 in 0.00 W/m2
22:49 73.0 °F 70.0 °F 30.1 in South 14 mph 16 mph 89% 0.000 in 0.00 W/m2
22:54 73.0 °F 70.0 °F 30.1 in SSE 16 mph 16 mph 89% 0.000 in 0.00 W/m2
22:59 73.0 °F 70.0 °F 30.1 in SSE 12 mph 16 mph 89% 0.000 in 0.00 W/m2
23:04 73.0 °F 70.0 °F 30.1 in SSE 16 mph 16 mph 89% 0.000 in 0.00 W/m2
23:09 73.0 °F 70.0 °F 30.1 in South 17 mph 17 mph 90% 0.000 in 0.00 W/m2
23:14 73.0 °F 70.0 °F 30.1 in South 12 mph 17 mph 90% 0.000 in 0.00 W/m2
23:19 73.0 °F 70.0 °F 30.1 in SSE 13 mph 13 mph 90% 0.000 in 0.00 W/m2
23:24 73.0 °F 70.0 °F 30.1 in South 10 mph 13 mph 90% 0.000 in 0.00 W/m2
23:29 73.0 °F 70.0 °F 30.1 in SSE 11 mph 11 mph 90% 0.000 in 0.00 W/m2
23:34 73.0 °F 69.0 °F 30.1 in WNW 17 mph 21 mph 90% 0.000 in 0.00 W/m2
23:39 72.0 °F 69.0 °F 30.1 in South 8 mph 19 mph 90% 0.000 in 0.00 W/m2
23:44 72.0 °F 69.0 °F 30.1 in South 9 mph 14 mph 90% 0.000 in 0.00 W/m2
23:49 72.0 °F 69.0 °F 30.1 in SSW 7 mph 14 mph 91% 0.000 in 0.00 W/m2
23:54 72.0 °F 69.0 °F 30.1 in SSW 11 mph 12 mph 91% 0.000 in 0.00 W/m2
23:59 72.0 °F 69.0 °F 30.1 in South 14 mph 14 mph 91% 0.000 in 0.00 W/m2
Villages of Bridgestone, Spring, TX USA
Compliments of Weather Underground - 4 mb